Pagrindinis puslapis
METAR-TAF:

METAR-TAF

Oro uostai :

Spokane, Vašingtonas, Jungtinės Amerikos Valstijos

platuma: 47-37-17N, ilguma: 117-31-40W, Aukštis: 723 m

Dabartinis oras

Ataskaita buvo paskelbta 51 minutes, ne 01:53 UTC
Vėjas 8 kt iš Vakarų/Pietvakarių
Temperatūra 14°C
Drėgmė 31%
Slėgis 1017 hPa
Matomumas: 16.1 km
Mažai debesys ne aukštis 6000 ft
Mažai debesys ne aukštis 24000 ft

METAR: KGEG 080153Z 25008KT 10SM FEW060 FEW240 14/M03 A3003 RMK AO2 SLP173 T01441028

Laikas: 19:44 (02:44 UTC)

Prognozė

Ataskaita buvo paskelbta 3 valandos ir 9 minutes, ne 23:35 UTC
Prognozė galioja nuo 08 metu 00 UTC su 08 metu 24 UTC
Vėjas 9 kt iš Vakarų/Pietvakarių
Matomumas: 10 km
Mažai debesys ne aukštis 8000 ft
Išsisklaidę debesys ne aukštis 20000 ft
Nuo 08 metu 1100 UTC
Vėjas 5 kt iš Rytų/Šiaurės Rytų
Matomumas: 10 km
Giedras dangus

TAF: KGEG 072335Z 0800/0824 25009KT P6SM FEW080 SCT200 FM081100 07005KT P6SM SKC

Orai ataskaitas ir orų prognozės (METAR, TAF).

turimą stotys yra geltonos ir raudonos taškus žemėlapyje.

Perkelti pele per norėdami pamatyti stoties vardą.

Tada spustelėkite, norėdami matyti oro stebėjimo ir prognozės.

Norėdami pakeisti žemėlapį: spustelėkite ant žalios mygtukų su juodo kryžiaus žemyn,; žalią mygtuką su brūkšneliu, jei norite nutolinti; arba žalių rodyklių gretimoms žemėlapius.


METAR-TAF: